Latest Coastal Weather Observations for King Island Airport

IDT60701

Issued at 7:02 pm EST Saturday 25 May 2019 (issued every 10 minutes, with the page automatically refreshed every 10 minutes)

About coastal observations | Map of coastal stations | Coastal observations for TAS | Marine services | Other Formats
Station Details ID: 098017 Name: KING ISLAND AIRPORT Lat: -39.88 Lon: 143.89 Height: 35.42 m
Data from the previous 72 hours. | See also: Recent months at King Island Airport
Date/Time
EST
Wind Sea
Height
m
Swell Vis
km
Cloud Weather Temp
°C
Press
hPa
Rain since
9am
mm
Dir  Spd
kts
Gust
kts
Height
m
Period
s
Dir
25/07:00pm W 16 23 - - - - 10 Partly cloudy - 11.9 1008.2 3.2
25/06:30pm WNW 18 26 - - - - 10 Partly cloudy - 12.9 1007.9 3.2
25/06:28pm WNW 16 26 - - - - 10 Partly cloudy - 12.9 1007.8 3.2
25/06:00pm WNW 17 23 - - - - 10 Cloudy - 12.8 1007.6 3.2
25/05:30pm WNW 15 20 - - - - 10 Partly cloudy - 12.7 1007.7 3.2
25/05:00pm WNW 16 21 - - - - 10 - - 12.6 1007.4 3.2
25/04:30pm WNW 16 24 - - - - 10 Partly cloudy - 12.9 1007.4 3.2
25/04:00pm WNW 15 22 - - - - 10 Partly cloudy - 13.4 1007.5 3.2
25/03:38pm WNW 16 26 - - - - 10 Partly cloudy - 13.4 1007.3 3.2
25/03:30pm WNW 15 22 - - - - 10 Partly cloudy - 13.4 1007.3 3.2
25/03:16pm WNW 16 23 - - - - 10 Partly cloudy - 13.3 1007.3 3.2
25/03:00pm WNW 19 27 - - - - 2 Cloudy Showers 12.2 1007.3 3.2
25/02:53pm NW 19 26 - - - - 5 Partly cloudy - 12.7 1007.2 1.0
25/02:30pm NW 19 24 - - - - 10 Partly cloudy - 13.5 1007.2 0.6
25/02:18pm WNW 15 23 - - - - 10 Partly cloudy - 13.1 1007.4 0.6
25/02:08pm WNW 17 27 - - - - 5 Partly cloudy - 13.1 1007.4 0.6
25/02:00pm NW 20 27 - - - - 5 Partly cloudy - 12.6 1007.4 0.4
25/01:54pm NW 19 23 - - - - 10 Partly cloudy - 12.9 1007.4 0.2
25/01:41pm NW 16 21 - - - - 5 Partly cloudy - 13.2 1007.5 0.2
25/01:30pm WNW 15 19 - - - - 10 Partly cloudy - 14.3 1007.5 0.0
25/01:00pm WNW 17 22 - - - - 10 Partly cloudy - 14.4 1007.9 0.0
25/12:38pm WNW 19 29 - - - - 10 Partly cloudy - 12.9 1008.2 0.0
25/12:30pm WNW 19 25 - - - - 10 Partly cloudy - 14.1 1008.3 0.0
25/12:00pm WNW 15 19 - - - - 10 Cloudy - 14.4 1008.7 0.0
25/11:30am WNW 15 19 - - - - 10 Partly cloudy - 14.3 1009.1 0.0
25/11:00am W 12 17 - - - - 10 Partly cloudy - 14.1 1009.5 0.0
25/10:30am WNW 15 20 - - - - 10 Partly cloudy - 14.4 1009.4 0.0
25/10:00am WNW 15 20 - - - - 10 Partly cloudy - 14.6 1009.5 0.0
25/09:30am WNW 15 20 - - - - 10 Partly cloudy - 14.4 1009.9 0.0
25/09:00am WNW 15 21 - - - - 10 Cloudy - 13.9 1009.8 5.0
25/08:30am WNW 14 19 - - - - 10 Partly cloudy - 13.9 1009.8 5.0
25/08:00am WNW 15 19 - - - - 10 Partly cloudy - 13.8 1009.7 5.0
25/07:30am WNW 15 21 - - - - 10 Partly cloudy - 13.8 1009.6 5.0
25/07:00am WNW 17 24 - - - - 10 Partly cloudy - 13.8 1009.4 5.0
25/06:30am WNW 16 20 - - - - 10 Partly cloudy - 14.0 1009.2 5.0
25/06:00am WNW 18 23 - - - - 10 Cloudy Rain 14.1 1009.2 5.0
25/05:30am NW 17 22 - - - - 10 Partly cloudy - 13.7 1009.1 5.0
25/05:00am WNW 16 19 - - - - 10 Partly cloudy - 13.8 1009.1 5.0
25/04:51am WNW 16 22 - - - - 10 Partly cloudy - 13.6 1008.9 5.0
25/04:35am WNW 19 25 - - - - 5 Partly cloudy - 13.5 1009.1 4.8
25/04:30am WNW 19 24 - - - - 10 Partly cloudy - 14.6 1008.9 4.6
25/04:00am NW 22 28 - - - - 10 Partly cloudy - 14.5 1009.0 4.6
25/03:30am NW 21 26 - - - - 10 Partly cloudy - 14.0 1009.5 4.6
25/03:18am NW 21 27 - - - - 10 Partly cloudy - 13.8 1009.6 4.6
25/03:12am NW 24 29 - - - - 7 Partly cloudy - 13.5 1009.7 4.6
25/03:00am NW 29 38 - - - - 4 Cloudy Showers 13.7 1009.8 4.2
25/02:54am NW 25 38 - - - - 4 Partly cloudy - 14.3 1009.7 4.0
25/02:46am NW 21 29 - - - - 5 Partly cloudy - 14.4 1009.6 3.4
25/02:42am NW 22 29 - - - - 10 Partly cloudy - 14.7 1009.7 3.0
25/02:30am NW 20 27 - - - - 6 Partly cloudy - 14.7 1009.7 2.8
25/02:00am NW 22 29 - - - - 10 Partly cloudy - 14.8 1009.9 2.8
25/01:52am NW 18 29 - - - - 10 Partly cloudy - 15.0 1010.0 2.8
25/01:30am NW 19 23 - - - - 10 Partly cloudy - 14.9 1010.4 2.8
25/01:00am NW 20 26 - - - - 10 Partly cloudy - 14.7 1010.6 2.8
25/12:30am NW 20 24 - - - - 10 Partly cloudy - 14.5 1011.0 2.8
25/12:00am NW 23 30 - - - - 10 Cloudy - 14.6 1011.3 2.8
 
Date/Time
EST
Wind Sea
Height
m
Swell Vis
km
Cloud Weather Temp
°C
Press
hPa
Rain since
9am
mm
Dir  Spd
kts
Gust
kts
Height
m
Period
s
Dir
24/11:30pm NW 20 27 - - - - 10 Partly cloudy - 14.1 1011.6 2.8
24/11:00pm NW 22 28 - - - - 10 Partly cloudy - 14.1 1011.7 2.8
24/10:30pm WNW 21 26 - - - - 10 Partly cloudy - 13.8 1011.9 2.8
24/10:00pm NW 22 28 - - - - 10 Partly cloudy - 14.1 1012.0 2.8
24/09:30pm WNW 22 28 - - - - 10 Partly cloudy - 14.0 1011.9 2.8
24/09:00pm WNW 22 28 - - - - 10 Cloudy - 14.1 1011.7 2.8
24/08:30pm WNW 21 26 - - - - - Partly cloudy - 14.2 1011.8 2.8
24/08:00pm WNW 19 26 - - - - - Partly cloudy - 14.1 1011.7 2.8
24/07:30pm WNW 22 29 - - - - - Partly cloudy - 14.4 1011.4 2.8
24/07:00pm WNW 19 24 - - - - - Partly cloudy - 14.3 1011.3 2.8
24/06:48pm WNW 19 29 - - - - 10 Partly cloudy - 14.3 1011.2 2.8
24/06:30pm WNW 20 26 - - - - 10 Partly cloudy - 14.6 1011.0 2.8
24/06:00pm WNW 23 30 - - - - 10 Cloudy - 15.0 1010.4 2.8
24/05:30pm WNW 22 32 - - - - 10 Partly cloudy - 15.0 1010.1 2.8
24/05:29pm WNW 22 32 - - - - 10 Partly cloudy - 15.0 1010.1 2.8
24/05:00pm WNW 22 30 - - - - 10 Partly cloudy - 15.5 1010.1 2.8
24/04:30pm NW 23 32 - - - - 10 Partly cloudy - 16.5 1009.7 2.8
24/04:17pm NNW 17 27 - - - - 10 Partly cloudy - 16.7 1009.4 2.8
24/04:00pm NNW 14 19 - - - - 10 Partly cloudy - 16.3 1009.6 2.8
24/03:30pm N 13 16 - - - - 10 Partly cloudy - 16.0 1009.6 2.8
24/03:00pm N 12 15 - - - - 10 Cloudy Rain 15.6 1009.9 2.8
24/02:30pm N 9 14 - - - - 10 Cloudy - 15.0 1010.3 2.8
24/02:00pm N 10 13 - - - - 10 Partly cloudy - 14.5 1010.7 2.8
24/01:30pm N 10 14 - - - - 10 Partly cloudy - 14.4 1011.2 2.4
24/01:00pm N 10 14 - - - - 10 Partly cloudy - 14.2 1011.9 2.4
24/12:30pm N 10 14 - - - - 10 Partly cloudy - 13.7 1012.3 2.4
24/12:00pm N 10 13 - - - - 10 Cloudy Rain 13.5 1013.2 1.8
24/11:30am N 14 18 - - - - 10 Partly cloudy - 14.2 1014.0 1.0
24/11:00am N 17 23 - - - - 10 Partly cloudy - 14.6 1014.8 0.4
24/10:30am N 12 16 - - - - 10 Partly cloudy - 14.7 1014.8 0.2
24/10:00am N 8 11 - - - - 10 Partly cloudy - 14.7 1015.0 0.0
24/09:30am N 9 12 - - - - 10 Partly cloudy - 14.7 1015.2 0.0
24/09:00am NNW 13 18 - - - - 10 Cloudy Rain 14.8 1016.0 0.6
24/08:30am NNW 9 11 - - - - 10 Cloudy - 14.2 1015.9 0.6
24/08:00am NNW 9 11 - - - - 10 Partly cloudy - 14.0 1016.2 0.6
24/07:30am N 4 7 - - - - 10 Partly cloudy - 11.9 1016.1 0.2
24/07:00am NE 4 5 - - - - 10 Partly cloudy - 11.3 1015.8 0.2
24/06:30am NW 8 9 - - - - 10 Partly cloudy - 12.9 1015.8 0.2
24/06:00am NW 7 8 - - - - 10 Cloudy - 13.5 1015.6 0.2
24/05:30am NW 8 10 - - - - 10 Cloudy - 13.7 1015.9 0.2
24/05:00am NW 9 11 - - - - 10 Cloudy - 13.5 1016.2 0.2
24/04:30am WNW 8 11 - - - - 10 Cloudy - 13.5 1016.4 0.2
24/04:00am WNW 8 9 - - - - 10 Partly cloudy - 13.0 1016.4 0.2
24/03:30am WNW 8 11 - - - - 10 Partly cloudy - 12.6 1016.5 0.2
24/03:00am WNW 8 9 - - - - 10 Partly cloudy - 12.2 1016.8 0.2
24/02:30am WNW 8 9 - - - - 10 Partly cloudy - 12.5 1017.1 0.2
24/02:00am WNW 8 9 - - - - 10 - - 12.4 1017.5 0.2
24/01:30am NNW 4 5 - - - - 10 Partly cloudy - 11.7 1017.4 0.2
24/01:00am WNW 7 8 - - - - 10 Partly cloudy - 12.9 1017.7 0.2
24/12:30am WNW 8 9 - - - - 10 Partly cloudy - 13.4 1017.9 0.2
24/12:05am WNW 7 9 - - - - 10 Partly cloudy - 13.7 1017.9 0.2
24/12:00am WNW 7 9 - - - - 10 Cloudy - 13.9 1017.9 0.2
 
Date/Time
EST
Wind Sea
Height
m
Swell Vis
km
Cloud Weather Temp
°C
Press
hPa
Rain since
9am
mm
Dir  Spd
kts
Gust
kts
Height
m
Period
s
Dir
23/11:53pm NW 7 8 - - - - 10 Partly cloudy - 13.7 1018.0 0.2
23/11:30pm NW 4 6 - - - - 6 Partly cloudy - 12.3 1018.2 0.2
23/11:00pm E 1 3 - - - - 10 Partly cloudy - 11.1 1018.4 0.2
23/10:30pm N 4 5 - - - - 8 Partly cloudy - 10.7 1018.7 0.2
23/10:00pm NNE 2 4 - - - - 10 Partly cloudy - 9.9 1018.6 0.2
23/09:30pm CALM 0 0 - - - - 10 Partly cloudy - 10.5 1018.2 0.2
23/09:00pm CALM 0 3 - - - - 10 Cloudy - 9.7 1019.1 0.2
23/08:30pm ENE 1 3 - - - - 10 Partly cloudy - 9.8 1018.9 0.2
23/08:00pm ENE 1 4 - - - - 10 Partly cloudy - 10.7 1019.0 0.2
23/07:30pm NE 2 4 - - - - 10 Partly cloudy - 10.8 1019.2 0.2
23/07:00pm NNE 4 5 - - - - 10 - - 10.3 1018.9 0.2
23/06:30pm NNE 5 5 - - - - 10 - - 10.1 1019.0 0.2
23/06:00pm NNE 4 5 - - - - 10 Mostly clear - 11.0 1019.3 0.2
23/05:30pm NNE 5 6 - - - - 10 - - 11.9 1019.3 0.2
23/05:00pm N 5 6 - - - - - - - 13.1 1019.4 0.2
23/04:30pm N 7 10 - - - - - - - 14.1 1019.5 0.2
23/04:00pm NNW 9 11 - - - - - - - 14.5 1019.5 0.2
23/03:30pm NNW 10 13 - - - - - - - 15.1 1019.6 0.2
23/03:00pm NNW 11 13 - - - - - - - 15.7 1019.8 0.2
23/02:30pm NNW 11 14 - - - - - - - 15.8 1020.2 0.2
23/02:00pm NNW 11 14 - - - - 10 Partly cloudy - 15.8 1020.6 0.2
23/01:30pm NNW 13 17 - - - - 10 - - 16.4 1021.2 0.2
23/01:00pm NNW 14 17 - - - - 10 Partly cloudy - 16.6 1021.6 0.2
23/12:39pm NNW 13 16 - - - - 10 Partly cloudy - 16.8 1022.0 0.2
23/12:30pm NNW 13 17 - - - - 10 Partly cloudy - 16.5 1022.2 0.2
23/12:05pm NNW 12 15 - - - - 10 Partly cloudy - 16.4 1022.7 0.2
23/12:00pm NNW 12 16 - - - - 10 Mostly clear - 16.0 1022.8 0.2
23/11:30am NNW 13 17 - - - - 10 Partly cloudy - 16.4 1023.4 0.2
23/11:21am N 13 16 - - - - 10 Partly cloudy - 16.1 1023.6 0.2
23/11:00am NNW 12 15 - - - - 10 Partly cloudy - 16.5 1024.1 0.2
23/10:30am NNW 13 16 - - - - 10 Partly cloudy - 16.0 1024.3 0.2
23/10:14am NNW 12 15 - - - - 10 Partly cloudy - 15.6 1024.3 0.2
23/10:00am N 11 14 - - - - 10 Partly cloudy - 15.5 1024.2 0.2
23/09:39am N 7 9 - - - - 10 Partly cloudy - 15.2 1024.4 0.2
23/09:30am N 8 10 - - - - 10 Partly cloudy - 14.9 1024.4 0.2
23/09:10am NNE 6 8 - - - - 10 Partly cloudy - 13.8 1024.6 0.0
23/09:00am NNE 4 6 - - - - 10 Cloudy - 13.5 1024.7 0.0
23/08:53am NNE 4 6 - - - - 10 Partly cloudy - 13.1 1024.8 0.0
23/08:30am NNE 5 7 - - - - 10 Partly cloudy - 13.6 1024.8 0.0
23/08:00am NNE 4 6 - - - - 10 Cloudy - 12.8 1024.8 0.0
23/07:30am NE 4 5 - - - - 10 Partly cloudy - 12.3 1024.6 0.0
23/07:28am NE 3 5 - - - - 10 Partly cloudy - 12.3 1024.6 0.0
23/07:10am ESE 1 5 - - - - 10 Partly cloudy - 12.1 1024.6 0.0
23/07:00am CALM 0 5 - - - - 10 Partly cloudy - 11.8 1024.5 0.0
23/06:30am CALM 0 0 - - - - 10 Partly cloudy - 11.7 1024.6 0.0
23/06:00am NNE 2 3 - - - - 10 Mostly cloudy - 11.8 1024.6 0.0
23/05:30am NNE 4 5 - - - - 10 Partly cloudy - 11.5 1024.5 0.0
23/05:26am NNE 5 5 - - - - 10 Partly cloudy - 11.5 1024.5 0.0
23/05:01am N 1 5 - - - - 10 Partly cloudy - 11.3 1024.6 0.0
23/05:00am NNE 1 5 - - - - 10 Partly cloudy - 11.1 1024.6 0.0
23/04:42am E 2 4 - - - - 10 Partly cloudy - 10.5 1024.5 0.0
23/04:30am E 3 4 - - - - 10 Partly cloudy - 9.8 1024.5 0.0
23/04:17am ENE 3 4 - - - - 10 Partly cloudy - 9.1 1024.6 0.0
23/04:07am E 4 4 - - - - 10 Partly cloudy - 9.3 1024.6 0.0
23/04:00am E 4 5 - - - - 10 Partly cloudy - 9.0 1024.8 0.0
23/03:30am E 5 5 - - - - 10 Partly cloudy - 9.2 1025.1 0.0
23/03:00am ESE 4 5 - - - - 10 Cloudy - 8.7 1025.4 0.0
23/02:30am ESE 4 5 - - - - 10 Partly cloudy - 7.3 1025.6 0.0
23/02:00am ESE 4 5 - - - - 10 Partly cloudy - 7.8 1025.7 0.0
23/01:30am ESE 3 4 - - - - 10 Partly cloudy - 7.9 1026.0 0.0
23/01:00am ESE 4 5 - - - - 10 - - 7.5 1026.1 0.0
23/12:30am E 4 5 - - - - 10 - - 6.4 1026.2 0.0
23/12:00am CALM 0 0 - - - - 10 - - 7.4 1026.6 0.0
 
Date/Time
EST
Wind Sea
Height
m
Swell Vis
km
Cloud Weather Temp
°C
Press
hPa
Rain since
9am
mm
Dir  Spd
kts
Gust
kts
Height
m
Period
s
Dir
22/11:30pm CALM 0 0 - - - - 10 - - 7.7 1026.6 0.0
22/11:00pm N 2 3 - - - - 10 - - 8.1 1026.8 0.0
22/10:30pm NNW 2 5 - - - - 10 - - 9.1 1026.9 0.0
22/10:00pm WNW 7 8 - - - - 10 - - 11.4 1027.0 0.0
22/09:30pm WNW 7 9 - - - - 10 - - 11.8 1027.0 0.0
22/09:00pm W 7 9 - - - - 10 - - 12.1 1027.1 0.0
22/08:30pm WNW 7 9 - - - - 10 Partly cloudy - 12.5 1026.8 0.0
22/08:00pm WNW 7 9 - - - - 10 Partly cloudy - 12.6 1026.9 0.0
22/07:30pm WNW 8 10 - - - - 10 Partly cloudy - 13.3 1026.8 0.0

Other formats

Comma delimited format used in spreadsheet applications
http://www.bom.gov.au/fwo/IDT60701/IDT60701.94850.axf

JavaScript Object Notation format (JSON) in row-major order
http://www.bom.gov.au/fwo/IDT60701/IDT60701.94850.json

Data quality

Most of these data are generated automatically and are frequently updated. Quality checks on data are not normally performed. It is possible for incorrect values to appear. Refer to information at About Latest Weather Observations and please check the disclaimer before using these data.